Time;durP1;ratioP1;P1;durP2;ratioP2;P2;SDS_P1;SDS_P2;PMS_P1;PMS_P2;Temp;Humidity;BMP_temperature;BMP_pressure;BME280_temperature;BME280_humidity;BME280_pressure;Samples;Min_cycle;Max_cycle;Signal;HPM_P1;HPM_P2
2021/07/28 00:01:57;;;;;;;;;;;;;;;31.63;37.05;99999.16;4456291;32;35545;-89
2021/07/28 00:04:24;;;;;;;;;;;;;;;31.56;37.27;99992.78;4456691;32;35333;-89
2021/07/28 00:06:52;;;;;;;;;;;;;;;32.03;36.29;99988.25;4469070;32;34610;-89
2021/07/28 00:09:19;;;;;;;;;;;;;;;31.25;37.82;99989.09;4456658;32;33530;-89
2021/07/28 00:11:50;;;;;;;;;;;;;;;31.28;37.89;99986.03;4456580;32;34106;-89
2021/07/28 00:14:18;;;;;;;;;;;;;;;31.44;37.46;99985.09;4482606;32;34022;-89
2021/07/28 00:16:45;;;;;;;;;;;;;;;31.37;37.68;99988.69;4469480;32;34234;-89
2021/07/28 00:24:34;;;;;;;;;;;;;;;31.60;37.33;99983.31;4471048;32;34712;-90
2021/07/28 00:27:02;;;;;;;;;;;;;;;31.18;38.11;99980.06;4456317;32;36252;-90
2021/07/28 00:29:30;;;;;;;;;;;;;;;31.06;38.31;99973.38;4468827;32;33825;-89
2021/07/28 00:31:58;;;;;;;;;;;;;;;30.50;39.48;99971.50;4456556;32;35253;-89
2021/07/28 00:34:25;;;;;;;;;;;;;;;30.96;38.50;99971.69;4456221;32;34584;-89
2021/07/28 00:36:57;;;;;;;;;;;;;;;30.97;38.45;99978.75;4470274;32;34841;-89
2021/07/28 00:39:25;;;;;;;;;;;;;;;30.81;38.94;99978.84;4482512;32;33805;-89
2021/07/28 00:41:52;;;;;;;;;;;;;;;30.45;40.05;99973.88;4481678;31;32934;-89
2021/07/28 00:44:19;;;;;;;;;;;;;;;29.65;41.90;99978.91;4469498;32;35140;-88
2021/07/28 00:46:48;;;;;;;;;;;;;;;29.36;42.73;99979.38;4456320;32;33032;-88
2021/07/28 00:49:16;;;;;;;;;;;;;;;29.68;42.01;99971.50;4455825;32;32803;-89
2021/07/28 00:51:43;;;;;;;;;;;;;;;29.58;42.22;99972.50;4468902;32;35311;-89
2021/07/28 00:54:11;;;;;;;;;;;;;;;30.04;41.26;99971.25;4455889;32;34956;-89
2021/07/28 00:56:39;;;;;;;;;;;;;;;30.76;39.02;99965.06;4468997;32;34898;-89
2021/07/28 00:59:08;;;;;;;;;;;;;;;30.86;38.85;99968.41;4454898;32;33777;-89
2021/07/28 01:01:38;;;;;;;;;;;;;;;30.81;38.94;99962.69;4455749;32;34703;-89
2021/07/28 01:04:06;;;;;;;;;;;;;;;31.28;38.05;99960.97;4469086;32;34633;-89
2021/07/28 01:06:33;;;;;;;;;;;;;;;31.31;37.90;99960.63;4482532;32;33916;-89
2021/07/28 01:09:02;;;;;;;;;;;;;;;31.67;37.13;99961.94;4482427;32;34153;-89
2021/07/28 01:11:29;;;;;;;;;;;;;;;31.08;38.42;99957.91;4457537;32;33139;-89
2021/07/28 01:13:57;;;;;;;;;;;;;;;30.94;38.73;99951.38;4457224;32;35911;-90
2021/07/28 01:16:25;;;;;;;;;;;;;;;30.76;39.02;99955.16;4457692;32;34571;-89
2021/07/28 01:18:56;;;;;;;;;;;;;;;31.08;38.32;99952.53;4470118;32;33536;-89
2021/07/28 01:21:23;;;;;;;;;;;;;;;30.24;39.95;99959.12;4469930;32;34846;-89
2021/07/28 01:23:50;;;;;;;;;;;;;;;30.74;38.92;99954.50;4469336;32;34804;-89
2021/07/28 01:26:18;;;;;;;;;;;;;;;30.60;39.19;99953.34;4455468;32;34553;-89
2021/07/28 01:28:45;;;;;;;;;;;;;;;29.77;40.98;99960.63;4455422;32;32241;-89
2021/07/28 01:31:15;;;;;;;;;;;;;;;29.58;41.46;99959.09;4455696;32;34557;-88
2021/07/28 01:33:43;;;;;;;;;;;;;;;30.11;40.39;99959.62;4481445;32;34353;-89
2021/07/28 01:36:14;;;;;;;;;;;;;;;30.79;38.90;99957.50;4455014;32;34981;-89
2021/07/28 01:38:42;;;;;;;;;;;;;;;30.77;38.87;99954.13;4455386;32;33932;-89
2021/07/28 01:41:10;;;;;;;;;;;;;;;30.91;38.59;99955.28;4467943;32;34589;-89
2021/07/28 01:43:38;;;;;;;;;;;;;;;30.41;39.51;99945.66;4481399;31;34952;-89
2021/07/28 01:46:05;;;;;;;;;;;;;;;30.35;39.71;99943.66;4468533;32;34811;-88
2021/07/28 01:48:33;;;;;;;;;;;;;;;30.49;39.44;99948.34;4454863;32;34260;-89
2021/07/28 01:51:01;;;;;;;;;;;;;;;30.36;39.76;99945.34;4455243;32;35240;-89
2021/07/28 01:53:29;;;;;;;;;;;;;;;30.38;39.62;99948.69;4468089;32;34731;-89
2021/07/28 01:55:58;;;;;;;;;;;;;;;30.46;39.52;99940.63;4455290;32;34833;-89
2021/07/28 01:58:25;;;;;;;;;;;;;;;30.28;39.87;99930.91;4468048;32;33579;-89
2021/07/28 02:00:53;;;;;;;;;;;;;;;30.44;39.66;99926.50;4455720;32;33102;-89
2021/07/28 02:03:22;;;;;;;;;;;;;;;30.44;39.42;99926.50;4455381;32;35305;-89
2021/07/28 02:05:49;;;;;;;;;;;;;;;30.59;39.13;99927.47;4455098;32;35323;-89
2021/07/28 02:08:17;;;;;;;;;;;;;;;29.65;41.27;99919.03;4455027;32;34944;-89
2021/07/28 02:10:46;;;;;;;;;;;;;;;30.26;39.85;99918.63;4456114;32;34870;-89
2021/07/28 02:13:19;;;;;;;;;;;;;;;30.64;39.08;99913.53;4470374;32;34384;-89
2021/07/28 02:15:47;;;;;;;;;;;;;;;30.01;40.44;99918.69;4470204;32;35608;-89
2021/07/28 02:18:14;;;;;;;;;;;;;;;30.54;39.26;99921.81;4456807;32;35201;-89
2021/07/28 02:20:41;;;;;;;;;;;;;;;30.54;39.31;99924.50;4470061;32;34983;-89
2021/07/28 02:23:09;;;;;;;;;;;;;;;30.43;39.41;99922.13;4457043;32;35860;-89
2021/07/28 02:25:36;;;;;;;;;;;;;;;29.85;40.84;99916.84;4469564;32;34199;-89
2021/07/28 02:28:03;;;;;;;;;;;;;;;29.90;40.67;99922.56;4457277;32;33683;-88
2021/07/28 02:30:31;;;;;;;;;;;;;;;29.80;41.00;99920.00;4457051;32;34272;-89
2021/07/28 02:32:58;;;;;;;;;;;;;;;30.07;40.54;99923.38;4469833;32;34756;-89
2021/07/28 02:35:26;;;;;;;;;;;;;;;29.86;40.65;99915.84;4470216;32;34141;-89
2021/07/28 02:37:54;;;;;;;;;;;;;;;30.32;39.37;99931.41;4444583;32;33999;-89
2021/07/28 02:40:21;;;;;;;;;;;;;;;30.21;39.59;99921.00;4471353;32;33886;-88
2021/07/28 02:42:49;;;;;;;;;;;;;;;29.93;40.04;99930.28;4457175;32;34734;-89
2021/07/28 02:45:17;;;;;;;;;;;;;;;29.84;40.28;99931.25;4470450;32;34342;-89
2021/07/28 02:47:44;;;;;;;;;;;;;;;29.14;41.99;99927.13;4469706;32;33812;-89
2021/07/28 02:50:12;;;;;;;;;;;;;;;29.62;40.85;99932.75;4482737;32;33942;-89
2021/07/28 02:52:40;;;;;;;;;;;;;;;28.91;42.18;99933.09;4470049;32;34550;-90
2021/07/28 02:55:08;;;;;;;;;;;;;;;29.38;41.23;99931.72;4457065;32;34432;-89
2021/07/28 02:57:35;;;;;;;;;;;;;;;29.90;40.21;99938.69;4471189;32;34597;-89
2021/07/28 03:00:04;;;;;;;;;;;;;;;30.25;39.46;99928.56;4485529;32;34051;-89
2021/07/28 03:02:31;;;;;;;;;;;;;;;29.79;40.49;99930.94;4488931;32;34388;-88
2021/07/28 03:04:58;;;;;;;;;;;;;;;29.78;40.45;99935.47;4460767;32;34690;-88
2021/07/28 03:07:26;;;;;;;;;;;;;;;29.46;41.13;99928.22;4472007;32;34040;-88
2021/07/28 03:09:54;;;;;;;;;;;;;;;28.90;42.42;99930.56;4471672;32;34920;-87
2021/07/28 03:12:21;;;;;;;;;;;;;;;29.23;41.88;99931.50;4458228;32;35089;-89
2021/07/28 03:14:49;;;;;;;;;;;;;;;28.99;42.41;99933.09;4456545;32;35040;-89
2021/07/28 03:17:17;;;;;;;;;;;;;;;29.20;42.14;99928.31;4456591;32;34613;-89
2021/07/28 03:19:44;;;;;;;;;;;;;;;29.61;41.32;99926.56;4469485;32;35364;-89
2021/07/28 03:22:11;;;;;;;;;;;;;;;29.73;40.56;99924.37;4468360;32;35622;-89
2021/07/28 03:24:39;;;;;;;;;;;;;;;28.89;42.68;99921.69;4456055;32;34116;-89
2021/07/28 03:27:06;;;;;;;;;;;;;;;29.54;41.09;99919.34;4456246;32;33401;-88
2021/07/28 03:29:34;;;;;;;;;;;;;;;29.37;41.58;99913.97;4469406;32;34727;-89
2021/07/28 03:32:02;;;;;;;;;;;;;;;28.97;42.22;99910.13;4456315;32;35129;-89
2021/07/28 03:34:29;;;;;;;;;;;;;;;29.33;41.54;99909.91;4469145;32;34254;-88
2021/07/28 03:36:57;;;;;;;;;;;;;;;29.09;42.03;99902.63;4468900;32;33250;-89
2021/07/28 03:39:24;;;;;;;;;;;;;;;29.22;41.72;99902.16;4455886;32;35665;-89
2021/07/28 03:41:52;;;;;;;;;;;;;;;28.55;43.19;99906.44;4456374;32;36467;-89
2021/07/28 03:44:20;;;;;;;;;;;;;;;29.53;40.89;99902.41;4469173;32;34369;-89
2021/07/28 03:46:47;;;;;;;;;;;;;;;29.10;41.83;99909.69;4455889;32;34555;-89
2021/07/28 03:49:14;;;;;;;;;;;;;;;28.82;42.54;99917.97;4455956;32;34312;-89
2021/07/28 03:51:43;;;;;;;;;;;;;;;29.33;41.25;99907.22;4482381;32;34307;-89
2021/07/28 03:54:11;;;;;;;;;;;;;;;29.59;40.84;99914.31;4469095;32;34543;-89
2021/07/28 03:56:38;;;;;;;;;;;;;;;29.40;41.40;99905.56;4456447;32;34938;-89
2021/07/28 03:59:05;;;;;;;;;;;;;;;29.56;41.10;99914.66;4469689;32;35469;-89
2021/07/28 04:01:33;;;;;;;;;;;;;;;29.62;40.89;99904.09;4469026;32;35674;-89
2021/07/28 04:04:01;;;;;;;;;;;;;;;29.44;41.25;99909.59;4456497;32;35615;-89
2021/07/28 04:06:28;;;;;;;;;;;;;;;29.01;42.41;99907.97;4456235;32;33499;-89
2021/07/28 04:08:56;;;;;;;;;;;;;;;28.98;42.40;99914.50;4456676;32;35504;-89
2021/07/28 04:11:23;;;;;;;;;;;;;;;29.44;41.41;99909.59;4458581;32;34862;-88
2021/07/28 04:13:51;;;;;;;;;;;;;;;29.99;40.05;99913.47;4469165;32;35310;-89
2021/07/28 04:16:19;;;;;;;;;;;;;;;29.80;40.50;99919.19;4460019;32;33631;-89
2021/07/28 04:18:47;;;;;;;;;;;;;;;29.30;41.87;99921.84;4470371;32;34400;-88
2021/07/28 04:21:14;;;;;;;;;;;;;;;29.18;42.39;99917.75;4459579;32;34784;-88
2021/07/28 04:23:42;;;;;;;;;;;;;;;29.90;40.72;99913.66;4457496;32;34981;-88
2021/07/28 04:26:09;;;;;;;;;;;;;;;29.59;41.50;99919.69;4469800;32;33457;-88
2021/07/28 04:28:37;;;;;;;;;;;;;;;30.21;40.07;99913.78;4469628;32;34306;-89
2021/07/28 04:31:04;;;;;;;;;;;;;;;30.27;39.99;99914.94;4456286;32;34775;-89
2021/07/28 04:33:32;;;;;;;;;;;;;;;30.11;40.50;99908.59;4469625;32;34563;-89
2021/07/28 04:35:59;;;;;;;;;;;;;;;29.80;41.35;99911.13;4457432;32;33130;-89
2021/07/28 04:38:26;;;;;;;;;;;;;;;30.17;40.63;99907.09;4483316;32;34914;-90
2021/07/28 04:40:55;;;;;;;;;;;;;;;30.06;41.06;99904.75;4483439;32;35342;-90
2021/07/28 04:43:22;;;;;;;;;;;;;;;30.10;40.88;99900.72;4470345;32;34366;-90
2021/07/28 04:46:00;;;;;;;;;;;;;;;30.19;40.77;99899.69;4470433;32;33741;-90
2021/07/28 04:48:28;;;;;;;;;;;;;;;30.24;40.64;99900.00;4483204;32;35008;-89
2021/07/28 04:50:56;;;;;;;;;;;;;;;30.47;40.20;99894.78;4449941;32;35622;-86
2021/07/28 04:53:28;;;;;;;;;;;;;;;30.58;39.95;99888.19;4453775;32;34538;-86
2021/07/28 04:55:57;;;;;;;;;;;;;;;31.02;39.19;99891.31;4441390;32;33414;-87
2021/07/28 04:58:24;;;;;;;;;;;;;;;31.16;39.00;99890.59;4466626;32;33971;-89
2021/07/28 05:00:52;;;;;;;;;;;;;;;31.39;38.54;99889.75;4461481;32;34698;-90
2021/07/28 05:03:22;;;;;;;;;;;;;;;31.51;38.33;99888.31;4470108;32;34334;-87
2021/07/28 05:05:50;;;;;;;;;;;;;;;31.67;38.12;99891.91;4457267;32;33447;-88
2021/07/28 05:08:18;;;;;;;;;;;;;;;31.60;38.32;99900.72;4469355;32;33837;-88
2021/07/28 05:10:49;;;;;;;;;;;;;;;31.58;38.48;99893.84;4456741;32;34916;-89
2021/07/28 05:13:16;;;;;;;;;;;;;;;31.91;37.77;99893.53;4468733;31;34427;-89
2021/07/28 05:15:44;;;;;;;;;;;;;;;32.04;37.46;99898.31;4456298;32;33600;-90
2021/07/28 05:18:12;;;;;;;;;;;;;;;31.71;38.02;99895.91;4468745;32;34502;-89
2021/07/28 05:20:40;;;;;;;;;;;;;;;31.88;37.91;99891.22;4468534;32;35335;-89
2021/07/28 05:23:07;;;;;;;;;;;;;;;31.88;38.16;99894.75;4455778;32;33474;-89
2021/07/28 05:25:35;;;;;;;;;;;;;;;32.16;37.66;99893.31;4453342;32;33941;-89
2021/07/28 05:28:05;;;;;;;;;;;;;;;32.24;37.84;99898.62;4453529;32;34272;-89
2021/07/28 05:30:33;;;;;;;;;;;;;;;32.73;37.17;99903.47;4453431;32;35121;-89
2021/07/28 05:33:02;;;;;;;;;;;;;;;32.77;37.18;99899.38;4465446;32;34369;-87
2021/07/28 05:35:29;;;;;;;;;;;;;;;32.81;36.94;99897.13;4453354;32;34277;-85
2021/07/28 05:38:01;;;;;;;;;;;;;;;32.75;37.11;99898.72;4465644;32;34648;-89
2021/07/28 05:40:31;;;;;;;;;;;;;;;32.72;37.47;99901.81;4452826;32;35542;-92
2021/07/28 05:42:59;;;;;;;;;;;;;;;32.63;37.13;99898.34;4453669;32;34084;-89
2021/07/28 05:45:26;;;;;;;;;;;;;;;33.05;36.11;99904.03;4466258;32;33118;-89
2021/07/28 05:47:54;;;;;;;;;;;;;;;33.10;36.47;99904.31;4468582;32;33226;-88
2021/07/28 05:50:21;;;;;;;;;;;;;;;33.68;35.61;99905.31;4455230;32;34174;-89
2021/07/28 05:52:48;;;;;;;;;;;;;;;33.27;36.56;99915.75;4455905;32;32842;-90
2021/07/28 05:55:17;;;;;;;;;;;;;;;33.16;36.63;99904.56;4456227;32;32239;-90
2021/07/28 05:57:47;;;;;;;;;;;;;;;32.99;36.42;99902.13;4456622;32;34601;-91
2021/07/28 06:00:15;;;;;;;;;;;;;;;32.92;36.51;99904.75;4459465;32;35023;-90
2021/07/28 06:02:43;;;;;;;;;;;;;;;33.17;35.79;99906.25;4484256;32;33819;-90
2021/07/28 06:05:11;;;;;;;;;;;;;;;33.17;35.79;99901.69;4484385;32;33359;-90
2021/07/28 06:07:39;;;;;;;;;;;;;;;33.25;35.37;99907.00;4448096;32;33397;-89
2021/07/28 06:10:07;;;;;;;;;;;;;;;33.62;34.44;99901.53;4442418;32;34515;-90
2021/07/28 06:12:35;;;;;;;;;;;;;;;33.38;35.19;99900.06;4441554;32;35540;-89
2021/07/28 06:15:03;;;;;;;;;;;;;;;34.06;34.18;99907.72;4456186;32;33312;-90
2021/07/28 06:17:31;;;;;;;;;;;;;;;34.07;33.72;99904.00;4450853;32;34003;-89
2021/07/28 06:19:58;;;;;;;;;;;;;;;33.95;34.10;99909.91;4455463;32;35344;-89
2021/07/28 06:22:26;;;;;;;;;;;;;;;34.21;33.42;99899.47;4448858;32;35917;-90
2021/07/28 06:24:54;;;;;;;;;;;;;;;34.19;33.59;99894.28;4477095;32;33220;-91
2021/07/28 06:27:21;;;;;;;;;;;;;;;34.93;32.38;99897.41;4470232;32;34314;-90
2021/07/28 06:29:48;;;;;;;;;;;;;;;34.78;32.59;99900.22;4447127;32;34968;-90
2021/07/28 06:32:21;;;;;;;;;;;;;;;35.28;31.90;99906.22;4458780;32;35090;-91
2021/07/28 06:34:49;;;;;;;;;;;;;;;35.37;31.83;99908.75;4456952;32;34803;-91
2021/07/28 06:37:16;;;;;;;;;;;;;;;35.43;31.81;99907.94;4456732;32;33292;-95
2021/07/28 06:39:44;;;;;;;;;;;;;;;35.81;31.28;99907.31;4443898;32;35641;-93
2021/07/28 06:42:12;;;;;;;;;;;;;;;35.75;31.14;99900.88;4455470;32;34657;-94
2021/07/28 06:44:41;;;;;;;;;;;;;;;36.04;30.83;99896.06;4442727;32;33758;-94
2021/07/28 06:47:09;;;;;;;;;;;;;;;36.28;30.55;99905.38;4442699;32;35522;-95
2021/07/28 06:49:37;;;;;;;;;;;;;;;35.42;31.34;99901.69;4442550;32;34824;-94
2021/07/28 06:52:05;;;;;;;;;;;;;;;35.38;30.92;99896.88;4442576;32;33087;-93
2021/07/28 06:54:36;;;;;;;;;;;;;;;34.31;33.23;99900.00;4442522;32;34102;-93
2021/07/28 06:57:03;;;;;;;;;;;;;;;34.08;33.73;99897.56;4441179;32;35788;-92
2021/07/28 06:59:31;;;;;;;;;;;;;;;34.75;32.69;99893.34;4442467;32;34681;-94
2021/07/28 07:02:01;;;;;;;;;;;;;;;35.28;31.87;99897.25;4443222;32;33197;-95
2021/07/28 07:04:29;;;;;;;;;;;;;;;35.04;32.42;99896.78;4442950;32;31802;-93
2021/07/28 07:06:56;;;;;;;;;;;;;;;35.35;32.33;99897.31;4442026;32;34370;-92
2021/07/28 07:09:24;;;;;;;;;;;;;;;33.25;36.27;99907.00;4441620;32;35835;-93
2021/07/28 07:11:52;;;;;;;;;;;;;;;33.87;34.94;99910.06;4442189;32;34797;-94
2021/07/28 07:14:19;;;;;;;;;;;;;;;33.91;35.09;99905.12;4442335;32;34051;-93
2021/07/28 07:16:48;;;;;;;;;;;;;;;34.58;33.99;99905.53;4442725;32;34304;-93
2021/07/28 07:19:16;;;;;;;;;;;;;;;33.04;36.81;99902.41;4441505;32;34643;-95
2021/07/28 07:21:43;;;;;;;;;;;;;;;33.93;35.18;99898.50;4441593;32;34471;-94
2021/07/28 07:24:11;;;;;;;;;;;;;;;34.39;34.31;99901.72;4442192;32;32538;-94
2021/07/28 07:26:39;;;;;;;;;;;;;;;34.53;34.14;99895.34;4447752;32;35551;-94
2021/07/28 07:29:06;;;;;;;;;;;;;;;33.06;37.41;99899.50;4442025;32;35351;-93
2021/07/28 07:31:34;;;;;;;;;;;;;;;33.59;36.55;99897.34;4450009;32;35878;-93
2021/07/28 07:34:02;;;;;;;;;;;;;;;34.40;34.85;99895.28;4457524;32;34268;-93
2021/07/28 07:36:29;;;;;;;;;;;;;;;34.65;34.36;99897.47;4445169;32;34767;-91
2021/07/28 07:38:57;;;;;;;;;;;;;;;35.34;32.94;99893.78;4441668;32;34625;-91
2021/07/28 07:41:24;;;;;;;;;;;;;;;34.92;33.26;99888.44;4458000;32;33992;-93
2021/07/28 07:43:52;;;;;;;;;;;;;;;35.38;32.52;99888.75;4470584;32;33659;-94
2021/07/28 07:46:19;;;;;;;;;;;;;;;34.66;33.31;99896.44;4457495;32;34576;-93
2021/07/28 07:48:47;;;;;;;;;;;;;;;35.04;33.21;99890.56;4457675;32;34916;-93
2021/07/28 07:51:14;;;;;;;;;;;;;;;35.26;32.77;99905.59;4457860;32;33351;-93
2021/07/28 07:53:42;;;;;;;;;;;;;;;34.56;34.34;99894.94;4457966;32;33558;-92
2021/07/28 07:56:11;;;;;;;;;;;;;;;33.94;34.61;99896.59;4471671;32;34969;-92
2021/07/28 07:58:39;;;;;;;;;;;;;;;34.49;33.87;99899.47;4459361;32;34988;-93
2021/07/28 08:01:10;;;;;;;;;;;;;;;34.54;32.75;99901.56;4476029;32;34461;-93
2021/07/28 08:03:39;;;;;;;;;;;;;;;33.59;33.91;99899.22;4457672;32;35083;-94
2021/07/28 08:06:10;;;;;;;;;;;;;;;34.73;31.99;99897.28;4457904;32;34299;-93
2021/07/28 08:08:41;;;;;;;;;;;;;;;34.75;32.08;99892.50;4456454;32;34654;-93
2021/07/28 08:11:13;;;;;;;;;;;;;;;35.39;31.21;99890.44;4456041;32;35603;-92
2021/07/28 08:13:40;;;;;;;;;;;;;;;35.66;30.76;99896.72;4454508;32;35475;-94
2021/07/28 08:16:09;;;;;;;;;;;;;;;35.06;31.62;99896.59;4459798;32;34098;-92
2021/07/28 08:18:38;;;;;;;;;;;;;;;34.76;32.27;99900.41;4444331;32;33799;-91
2021/07/28 08:21:08;;;;;;;;;;;;;;;34.16;33.57;99889.28;4448693;32;35012;-92
2021/07/28 08:23:36;;;;;;;;;;;;;;;35.49;31.52;99888.16;4453528;32;33679;-92
2021/07/28 08:26:05;;;;;;;;;;;;;;;35.01;31.44;99889.09;4451448;32;34703;-91
2021/07/28 08:28:34;;;;;;;;;;;;;;;35.33;31.12;99891.22;4454516;32;34034;-91
2021/07/28 08:31:02;;;;;;;;;;;;;;;35.63;29.96;99888.97;4452229;32;36051;-92
2021/07/28 08:33:31;;;;;;;;;;;;;;;34.88;30.48;99884.47;4451102;32;31765;-92
2021/07/28 08:36:18;;;;;;;;;;;;;;;34.84;30.50;99888.63;4447409;32;33274;-93
2021/07/28 08:38:46;;;;;;;;;;;;;;;35.84;28.76;99885.25;4442128;32;33340;-93
2021/07/28 08:41:15;;;;;;;;;;;;;;;34.91;29.30;99877.81;4441943;32;33295;-93
2021/07/28 08:43:42;;;;;;;;;;;;;;;35.63;27.95;99885.44;4441149;32;33782;-91
2021/07/28 08:46:11;;;;;;;;;;;;;;;35.88;28.29;99878.34;4441625;32;34966;-93
2021/07/28 08:48:39;;;;;;;;;;;;;;;35.40;28.82;99875.84;4441049;32;35655;-91
2021/07/28 08:51:07;;;;;;;;;;;;;;;35.89;28.83;99873.78;4441476;32;34915;-91
2021/07/28 08:53:35;;;;;;;;;;;;;;;36.39;28.00;99873.25;4454050;32;34896;-92
2021/07/28 08:56:04;;;;;;;;;;;;;;;36.14;28.19;99873.09;4453341;32;33146;-91
2021/07/28 08:58:32;;;;;;;;;;;;;;;36.85;27.61;99866.81;4440899;32;34793;-92
2021/07/28 09:01:00;;;;;;;;;;;;;;;37.04;26.56;99864.22;4440511;32;32955;-91
2021/07/28 09:03:27;;;;;;;;;;;;;;;37.37;26.04;99868.59;4441743;32;32410;-91
2021/07/28 09:05:57;;;;;;;;;;;;;;;37.37;26.51;99858.56;4453202;32;34405;-91
2021/07/28 09:08:35;;;;;;;;;;;;;;;36.78;25.56;99853.25;4466666;32;34504;-91
2021/07/28 09:11:03;;;;;;;;;;;;;;;36.47;26.67;99866.78;4440640;32;35205;-91
2021/07/28 09:13:35;;;;;;;;;;;;;;;36.42;26.06;99859.28;4439958;32;32370;-91
2021/07/28 09:16:03;;;;;;;;;;;;;;;36.86;25.58;99849.50;4440736;32;33989;-92
2021/07/28 09:18:37;;;;;;;;;;;;;;;37.33;25.01;99854.63;4428455;32;34459;-92
2021/07/28 09:21:05;;;;;;;;;;;;;;;38.03;24.49;99850.06;4453948;32;35173;-93
2021/07/28 09:23:35;;;;;;;;;;;;;;;36.25;26.28;99846.16;4455539;32;33133;-93
2021/07/28 09:26:05;;;;;;;;;;;;;;;37.91;23.87;99850.78;4441978;32;35496;-92
2021/07/28 09:28:33;;;;;;;;;;;;;;;37.68;24.35;99839.69;4442258;32;34489;-91
2021/07/28 09:31:01;;;;;;;;;;;;;;;37.99;23.06;99851.53;4454899;32;33299;-91
2021/07/28 09:33:28;;;;;;;;;;;;;;;37.47;23.86;99844.50;4456053;32;34063;-91
2021/07/28 09:36:13;;;;;;;;;;;;;;;37.98;22.64;99836.31;4455846;32;33949;-92
2021/07/28 09:38:45;;;;;;;;;;;;;;;37.83;22.96;99839.38;4459736;32;33254;-92
2021/07/28 09:41:20;;;;;;;;;;;;;;;38.01;22.67;99841.28;4452994;32;33429;-92
2021/07/28 09:43:56;;;;;;;;;;;;;;;38.01;21.81;99842.09;4480786;32;34343;-92
2021/07/28 09:46:28;;;;;;;;;;;;;;;38.15;21.21;99831.94;4460588;32;34355;-92
2021/07/28 09:48:59;;;;;;;;;;;;;;;38.53;20.88;99838.19;4444772;32;34525;-93
2021/07/28 09:51:27;;;;;;;;;;;;;;;38.77;21.31;99828.25;4444261;32;34587;-93
2021/07/28 09:53:55;;;;;;;;;;;;;;;38.49;21.47;99832.34;4455349;32;32699;-92
2021/07/28 09:56:27;;;;;;;;;;;;;;;38.51;21.89;99832.97;4455744;32;34140;-92
2021/07/28 09:59:00;;;;;;;;;;;;;;;38.62;21.40;99831.34;4444011;32;33428;-92
2021/07/28 10:01:28;;;;;;;;;;;;;;;38.54;21.48;99821.62;4455602;32;34879;-91
2021/07/28 10:04:18;;;;;;;;;;;;;;;39.28;20.73;99822.47;4457941;32;34304;-91
2021/07/28 10:06:47;;;;;;;;;;;;;;;38.85;21.05;99822.50;4455318;32;32938;-91
2021/07/28 10:09:20;;;;;;;;;;;;;;;38.41;21.44;99824.50;4442275;32;33608;-92
2021/07/28 10:11:49;;;;;;;;;;;;;;;38.61;21.29;99815.25;4442663;32;35533;-93
2021/07/28 10:14:17;;;;;;;;;;;;;;;38.45;21.65;99814.00;4454887;32;33948;-92
2021/07/28 10:16:45;;;;;;;;;;;;;;;38.68;21.33;99808.66;4445297;32;33862;-91
2021/07/28 10:19:14;;;;;;;;;;;;;;;37.90;22.58;99807.53;4442186;32;35854;-91
2021/07/28 10:21:55;;;;;;;;;;;;;;;38.81;21.75;99799.50;4444962;32;34481;-93
2021/07/28 10:24:23;;;;;;;;;;;;;;;38.42;22.32;99801.69;4455486;32;33429;-93
2021/07/28 10:26:51;;;;;;;;;;;;;;;38.38;22.09;99801.31;4454933;32;34639;-92
2021/07/28 10:29:25;;;;;;;;;;;;;;;37.87;22.42;99789.78;4456256;32;35131;-91
2021/07/28 10:31:53;;;;;;;;;;;;;;;38.83;21.39;99794.66;4443011;32;35183;-89
2021/07/28 10:34:22;;;;;;;;;;;;;;;39.01;21.73;99785.59;4455855;32;33616;-90
2021/07/28 10:37:02;;;;;;;;;;;;;;;39.16;21.54;99796.03;4455366;32;35940;-94
2021/07/28 10:40:03;;;;;;;;;;;;;;;38.89;21.37;99791.00;4444126;32;35718;-93
2021/07/28 10:42:30;;;;;;;;;;;;;;;38.91;20.90;99788.88;4451940;32;34231;-92
2021/07/28 10:45:09;;;;;;;;;;;;;;;38.54;20.45;99777.25;4454684;32;34169;-92
2021/07/28 10:47:45;;;;;;;;;;;;;;;39.84;18.74;99776.62;4442044;32;34371;-92
2021/07/28 10:50:31;;;;;;;;;;;;;;;40.32;18.14;99774.63;4454200;32;35346;-92
2021/07/28 10:52:59;;;;;;;;;;;;;;;40.54;18.32;99774.78;4467413;32;35392;-91
2021/07/28 10:55:27;;;;;;;;;;;;;;;39.59;18.57;99774.97;4454542;32;34262;-92
2021/07/28 10:58:05;;;;;;;;;;;;;;;40.05;18.21;99769.72;4441677;32;34679;-91
2021/07/28 11:00:39;;;;;;;;;;;;;;;39.31;18.90;99767.53;4454835;32;33334;-92
2021/07/28 11:03:12;;;;;;;;;;;;;;;39.44;18.84;99766.44;4454548;32;34871;-91
2021/07/28 11:05:41;;;;;;;;;;;;;;;40.02;18.27;99760.13;4429151;32;32496;-92
2021/07/28 11:08:09;;;;;;;;;;;;;;;40.05;18.21;99758.81;4434019;32;34813;-91
2021/07/28 11:10:36;;;;;;;;;;;;;;;39.81;18.86;99749.84;4447994;32;35349;-92
2021/07/28 11:13:05;;;;;;;;;;;;;;;40.18;19.14;99766.75;4460542;32;34829;-91
2021/07/28 11:15:33;;;;;;;;;;;;;;;39.97;19.07;99753.69;4443296;32;33703;-91
2021/07/28 11:18:02;;;;;;;;;;;;;;;40.00;18.93;99747.78;4442985;32;35596;-91
2021/07/28 11:20:34;;;;;;;;;;;;;;;39.64;19.20;99758.75;4454996;32;35141;-91
2021/07/28 11:23:20;;;;;;;;;;;;;;;40.14;18.87;99751.91;4454088;32;35083;-92
2021/07/28 11:25:48;;;;;;;;;;;;;;;40.63;18.38;99745.19;4468908;32;33312;-92
2021/07/28 11:28:22;;;;;;;;;;;;;;;41.13;18.21;99749.06;4441687;32;33167;-93
2021/07/28 11:31:00;;;;;;;;;;;;;;;40.74;18.87;99741.53;4454545;32;33576;-93
2021/07/28 11:33:28;;;;;;;;;;;;;;;40.47;19.13;99739.41;4467313;32;34620;-93
2021/07/28 11:35:57;;;;;;;;;;;;;;;40.32;19.54;99741.87;4443280;32;33314;-92
2021/07/28 11:38:28;;;;;;;;;;;;;;;40.51;19.09;99743.34;4455777;32;34252;-92
2021/07/28 11:40:57;;;;;;;;;;;;;;;40.88;19.01;99728.41;4441382;32;33164;-93
2021/07/28 11:43:29;;;;;;;;;;;;;;;40.32;19.52;99734.50;4440921;32;33529;-90
2021/07/28 11:45:57;;;;;;;;;;;;;;;40.83;19.11;99729.13;4441066;32;32331;-90
2021/07/28 11:48:29;;;;;;;;;;;;;;;40.31;19.75;99730.12;4467277;32;35251;-92
2021/07/28 11:51:03;;;;;;;;;;;;;;;39.96;21.20;99714.72;4479299;32;33224;-91
2021/07/28 11:53:31;;;;;;;;;;;;;;;40.81;20.59;99725.00;4441698;32;34247;-91
2021/07/28 11:56:05;;;;;;;;;;;;;;;40.41;18.06;99719.41;4453817;32;32108;-91
2021/07/28 11:58:34;;;;;;;;;;;;;;;40.64;17.95;99720.38;4454015;32;34009;-92
2021/07/28 12:01:18;;;;;;;;;;;;;;;40.60;18.17;99712.94;4454269;32;34319;-92
2021/07/28 12:03:50;;;;;;;;;;;;;;;40.56;18.08;99718.06;4467294;32;34468;-92
2021/07/28 12:06:38;;;;;;;;;;;;;;;40.36;17.76;99707.56;4441146;32;32540;-91
2021/07/28 12:09:11;;;;;;;;;;;;;;;40.65;17.62;99715.72;4454150;32;33184;-91
2021/07/28 12:11:57;;;;;;;;;;;;;;;40.73;17.89;99705.22;4441129;32;33589;-92
2021/07/28 12:14:32;;;;;;;;;;;;;;;40.89;17.31;99695.38;4456601;32;33439;-92
2021/07/28 12:17:05;;;;;;;;;;;;;;;40.79;16.96;99692.47;4463121;32;33327;-91
2021/07/28 12:19:34;;;;;;;;;;;;;;;40.65;17.21;99681.09;4475155;32;34468;-92
2021/07/28 12:22:02;;;;;;;;;;;;;;;41.11;17.02;99677.44;4451440;32;33758;-92
2021/07/28 12:24:34;;;;;;;;;;;;;;;40.83;16.77;99687.34;4450139;32;34537;-91
2021/07/28 12:27:32;;;;;;;;;;;;;;;40.87;16.16;99686.63;4467399;32;32510;-93
2021/07/28 12:30:08;;;;;;;;;;;;;;;41.18;15.69;99673.44;4470225;32;34091;-91
2021/07/28 12:32:36;;;;;;;;;;;;;;;41.30;15.58;99670.59;4471956;32;34722;-91
2021/07/28 12:35:04;;;;;;;;;;;;;;;41.16;15.70;99675.59;4473904;32;33292;-91
2021/07/28 12:37:32;;;;;;;;;;;;;;;41.67;15.69;99667.28;4473043;32;33451;-91
2021/07/28 12:40:00;;;;;;;;;;;;;;;41.18;15.88;99670.72;4459216;32;33398;-92
2021/07/28 12:42:29;;;;;;;;;;;;;;;41.11;15.93;99672.78;4483250;32;34293;-92
2021/07/28 12:44:57;;;;;;;;;;;;;;;40.72;16.58;99679.00;4469922;32;33113;-91
2021/07/28 12:47:25;;;;;;;;;;;;;;;40.98;16.01;99659.47;4455987;32;34833;-90
2021/07/28 12:49:53;;;;;;;;;;;;;;;40.56;16.67;99664.28;4457311;32;35990;-92
2021/07/28 12:52:20;;;;;;;;;;;;;;;40.82;16.56;99661.12;4477351;32;33528;-91
2021/07/28 12:54:49;;;;;;;;;;;;;;;40.93;16.40;99659.38;4439891;32;34713;-95
2021/07/28 12:57:18;;;;;;;;;;;;;;;40.73;16.48;99668.94;4454351;32;33326;-91
2021/07/28 12:59:46;;;;;;;;;;;;;;;40.65;16.22;99661.12;4440523;32;35739;-91
2021/07/28 13:02:13;;;;;;;;;;;;;;;40.66;15.88;99668.25;4466569;32;34270;-91
2021/07/28 13:04:41;;;;;;;;;;;;;;;40.80;15.71;99655.09;4453335;32;33347;-92